sensor_id;sensor_type;location;lat;lon;timestamp;temperature;humidity
29547;DHT22;40782;47.264;11.330;2023-04-01T00:01:10;5.70;1.00
29547;DHT22;40782;47.264;11.330;2023-04-01T00:03:39;5.60;1.00
29547;DHT22;40782;47.264;11.330;2023-04-01T00:06:06;5.50;1.00
29547;DHT22;40782;47.264;11.330;2023-04-01T00:08:34;5.50;1.00
29547;DHT22;40782;47.264;11.330;2023-04-01T00:11:01;5.60;46.50
29547;DHT22;40782;47.264;11.330;2023-04-01T00:13:29;5.60;79.50
29547;DHT22;40782;47.264;11.330;2023-04-01T00:15:56;5.50;16.30
29547;DHT22;40782;47.264;11.330;2023-04-01T00:18:23;5.40;24.60
29547;DHT22;40782;47.264;11.330;2023-04-01T00:20:51;5.30;38.70
29547;DHT22;40782;47.264;11.330;2023-04-01T00:23:18;5.40;99.40
29547;DHT22;40782;47.264;11.330;2023-04-01T00:25:47;5.40;44.90
29547;DHT22;40782;47.264;11.330;2023-04-01T00:28:15;5.40;83.30
29547;DHT22;40782;47.264;11.330;2023-04-01T00:30:42;5.30;69.30
29547;DHT22;40782;47.264;11.330;2023-04-01T00:33:09;5.20;36.60
29547;DHT22;40782;47.264;11.330;2023-04-01T00:35:36;5.20;78.00
29547;DHT22;40782;47.264;11.330;2023-04-01T00:38:03;5.20;99.90
29547;DHT22;40782;47.264;11.330;2023-04-01T00:40:32;5.40;99.90
29547;DHT22;40782;47.264;11.330;2023-04-01T00:43:01;5.40;99.90
29547;DHT22;40782;47.264;11.330;2023-04-01T00:45:30;5.20;50.40
29547;DHT22;40782;47.264;11.330;2023-04-01T00:47:58;5.10;36.80
29547;DHT22;40782;47.264;11.330;2023-04-01T00:50:26;5.20;77.20
29547;DHT22;40782;47.264;11.330;2023-04-01T00:52:55;5.00;1.00
29547;DHT22;40782;47.264;11.330;2023-04-01T00:55:22;4.90;18.40
29547;DHT22;40782;47.264;11.330;2023-04-01T00:57:50;5.00;85.10
29547;DHT22;40782;47.264;11.330;2023-04-01T01:00:19;5.00;43.90
29547;DHT22;40782;47.264;11.330;2023-04-01T01:02:47;5.00;35.80
29547;DHT22;40782;47.264;11.330;2023-04-01T01:05:16;5.10;99.90
29547;DHT22;40782;47.264;11.330;2023-04-01T01:07:45;5.10;72.50
29547;DHT22;40782;47.264;11.330;2023-04-01T01:10:14;5.10;99.10
29547;DHT22;40782;47.264;11.330;2023-04-01T01:12:44;5.10;99.90
29547;DHT22;40782;47.264;11.330;2023-04-01T01:15:13;4.90;45.30
29547;DHT22;40782;47.264;11.330;2023-04-01T01:17:47;5.00;99.90
29547;DHT22;40782;47.264;11.330;2023-04-01T01:25:50;5.10;96.40
29547;DHT22;40782;47.264;11.330;2023-04-01T01:28:26;5.10;99.90
29547;DHT22;40782;47.264;11.330;2023-04-01T01:30:58;5.10;99.90
29547;DHT22;40782;47.264;11.330;2023-04-01T01:33:35;4.80;25.00
29547;DHT22;40782;47.264;11.330;2023-04-01T01:36:07;4.70;25.60
29547;DHT22;40782;47.264;11.330;2023-04-01T01:38:36;4.70;91.00
29547;DHT22;40782;47.264;11.330;2023-04-01T01:41:04;4.80;99.90
29547;DHT22;40782;47.264;11.330;2023-04-01T01:43:33;4.90;99.90
29547;DHT22;40782;47.264;11.330;2023-04-01T01:46:01;5.00;99.90
29547;DHT22;40782;47.264;11.330;2023-04-01T01:48:30;5.00;99.90
29547;DHT22;40782;47.264;11.330;2023-04-01T01:50:58;4.80;94.40
29547;DHT22;40782;47.264;11.330;2023-04-01T01:53:27;4.80;99.90
29547;DHT22;40782;47.264;11.330;2023-04-01T01:55:54;4.80;99.90
29547;DHT22;40782;47.264;11.330;2023-04-01T01:58:22;4.90;99.90
29547;DHT22;40782;47.264;11.330;2023-04-01T02:00:51;5.00;99.90
29547;DHT22;40782;47.264;11.330;2023-04-01T02:03:20;5.00;99.90
29547;DHT22;40782;47.264;11.330;2023-04-01T02:05:48;5.00;99.90
29547;DHT22;40782;47.264;11.330;2023-04-01T02:08:16;5.10;99.90
29547;DHT22;40782;47.264;11.330;2023-04-01T02:10:49;5.10;99.90
29547;DHT22;40782;47.264;11.330;2023-04-01T02:13:18;5.10;99.90
29547;DHT22;40782;47.264;11.330;2023-04-01T02:15:49;5.10;99.90
29547;DHT22;40782;47.264;11.330;2023-04-01T02:18:17;4.90;99.90
29547;DHT22;40782;47.264;11.330;2023-04-01T02:20:45;4.70;48.80
29547;DHT22;40782;47.264;11.330;2023-04-01T02:23:13;4.70;62.00
29547;DHT22;40782;47.264;11.330;2023-04-01T02:25:40;4.60;26.20
29547;DHT22;40782;47.264;11.330;2023-04-01T02:28:10;4.50;57.50
29547;DHT22;40782;47.264;11.330;2023-04-01T02:30:38;4.60;98.90
29547;DHT22;40782;47.264;11.330;2023-04-01T02:33:05;4.60;77.30
29547;DHT22;40782;47.264;11.330;2023-04-01T02:35:33;4.40;34.30
29547;DHT22;40782;47.264;11.330;2023-04-01T02:38:00;4.30;40.10
29547;DHT22;40782;47.264;11.330;2023-04-01T02:40:28;4.30;99.90
29547;DHT22;40782;47.264;11.330;2023-04-01T02:42:55;4.50;99.90
29547;DHT22;40782;47.264;11.330;2023-04-01T02:45:23;4.40;99.90
29547;DHT22;40782;47.264;11.330;2023-04-01T02:47:50;4.40;99.90
29547;DHT22;40782;47.264;11.330;2023-04-01T02:50:17;4.40;99.90
29547;DHT22;40782;47.264;11.330;2023-04-01T02:52:45;4.60;99.90
29547;DHT22;40782;47.264;11.330;2023-04-01T02:55:12;4.70;99.90
29547;DHT22;40782;47.264;11.330;2023-04-01T02:57:39;4.50;78.80
29547;DHT22;40782;47.264;11.330;2023-04-01T03:00:07;4.40;71.80
29547;DHT22;40782;47.264;11.330;2023-04-01T03:02:38;4.40;99.90
29547;DHT22;40782;47.264;11.330;2023-04-01T03:05:05;4.20;58.20
29547;DHT22;40782;47.264;11.330;2023-04-01T03:07:33;4.20;99.90
29547;DHT22;40782;47.264;11.330;2023-04-01T03:10:00;4.30;99.90
29547;DHT22;40782;47.264;11.330;2023-04-01T03:12:27;4.30;99.90
29547;DHT22;40782;47.264;11.330;2023-04-01T03:14:54;4.30;99.90
29547;DHT22;40782;47.264;11.330;2023-04-01T03:17:21;4.40;99.90
29547;DHT22;40782;47.264;11.330;2023-04-01T03:19:49;4.30;99.90
29547;DHT22;40782;47.264;11.330;2023-04-01T03:22:16;4.40;99.90
29547;DHT22;40782;47.264;11.330;2023-04-01T03:24:46;4.50;99.90
29547;DHT22;40782;47.264;11.330;2023-04-01T03:27:13;4.40;99.90
29547;DHT22;40782;47.264;11.330;2023-04-01T03:29:40;4.50;99.90
29547;DHT22;40782;47.264;11.330;2023-04-01T03:32:07;4.60;99.90
29547;DHT22;40782;47.264;11.330;2023-04-01T03:34:34;4.80;99.90
29547;DHT22;40782;47.264;11.330;2023-04-01T03:37:03;4.90;99.90
29547;DHT22;40782;47.264;11.330;2023-04-01T03:39:31;4.90;99.90
29547;DHT22;40782;47.264;11.330;2023-04-01T03:41:58;4.70;99.90
29547;DHT22;40782;47.264;11.330;2023-04-01T03:44:25;4.80;99.90
29547;DHT22;40782;47.264;11.330;2023-04-01T03:46:52;4.90;99.90
29547;DHT22;40782;47.264;11.330;2023-04-01T03:49:19;4.90;99.90
29547;DHT22;40782;47.264;11.330;2023-04-01T03:51:46;4.90;99.90
29547;DHT22;40782;47.264;11.330;2023-04-01T03:54:14;4.90;99.90
29547;DHT22;40782;47.264;11.330;2023-04-01T03:56:42;4.90;84.40
29547;DHT22;40782;47.264;11.330;2023-04-01T03:59:09;4.80;58.60
29547;DHT22;40782;47.264;11.330;2023-04-01T04:01:37;4.90;99.90
29547;DHT22;40782;47.264;11.330;2023-04-01T04:04:04;4.90;65.90
29547;DHT22;40782;47.264;11.330;2023-04-01T04:06:32;4.70;18.00
29547;DHT22;40782;47.264;11.330;2023-04-01T04:08:59;4.60;11.50
29547;DHT22;40782;47.264;11.330;2023-04-01T04:11:27;4.50;32.90
29547;DHT22;40782;47.264;11.330;2023-04-01T04:13:54;4.50;71.00
29547;DHT22;40782;47.264;11.330;2023-04-01T04:16:21;4.60;99.90
29547;DHT22;40782;47.264;11.330;2023-04-01T04:18:48;4.70;99.90
29547;DHT22;40782;47.264;11.330;2023-04-01T04:21:16;4.80;99.90
29547;DHT22;40782;47.264;11.330;2023-04-01T04:23:43;4.90;99.90
29547;DHT22;40782;47.264;11.330;2023-04-01T04:26:11;4.70;99.90
29547;DHT22;40782;47.264;11.330;2023-04-01T04:28:40;4.70;99.90
29547;DHT22;40782;47.264;11.330;2023-04-01T04:31:07;4.80;99.90
29547;DHT22;40782;47.264;11.330;2023-04-01T04:33:34;4.80;99.90
29547;DHT22;40782;47.264;11.330;2023-04-01T04:36:02;4.90;99.90
29547;DHT22;40782;47.264;11.330;2023-04-01T04:38:30;5.00;99.90
29547;DHT22;40782;47.264;11.330;2023-04-01T04:40:57;5.10;99.90
29547;DHT22;40782;47.264;11.330;2023-04-01T04:43:24;5.10;99.90
29547;DHT22;40782;47.264;11.330;2023-04-01T04:45:52;5.10;99.90
29547;DHT22;40782;47.264;11.330;2023-04-01T04:48:19;5.10;93.90
29547;DHT22;40782;47.264;11.330;2023-04-01T04:50:46;5.00;27.50
29547;DHT22;40782;47.264;11.330;2023-04-01T04:53:14;5.00;24.50
29547;DHT22;40782;47.264;11.330;2023-04-01T04:55:42;5.00;18.50
29547;DHT22;40782;47.264;11.330;2023-04-01T04:58:10;5.10;4.40
29547;DHT22;40782;47.264;11.330;2023-04-01T05:00:37;5.00;1.00
29547;DHT22;40782;47.264;11.330;2023-04-01T05:03:05;5.00;1.00
29547;DHT22;40782;47.264;11.330;2023-04-01T05:05:33;5.00;1.00
29547;DHT22;40782;47.264;11.330;2023-04-01T05:08:00;5.00;1.00
29547;DHT22;40782;47.264;11.330;2023-04-01T05:10:27;4.90;1.00
29547;DHT22;40782;47.264;11.330;2023-04-01T05:12:54;5.00;9.80
29547;DHT22;40782;47.264;11.330;2023-04-01T05:15:21;5.00;28.80
29547;DHT22;40782;47.264;11.330;2023-04-01T05:17:48;5.10;54.50
29547;DHT22;40782;47.264;11.330;2023-04-01T05:20:17;5.10;44.00
29547;DHT22;40782;47.264;11.330;2023-04-01T05:22:44;5.10;26.20
29547;DHT22;40782;47.264;11.330;2023-04-01T05:25:11;5.00;1.00
29547;DHT22;40782;47.264;11.330;2023-04-01T05:27:38;5.00;1.00
29547;DHT22;40782;47.264;11.330;2023-04-01T05:30:05;4.90;1.00
29547;DHT22;40782;47.264;11.330;2023-04-01T05:32:32;4.80;9.80
29547;DHT22;40782;47.264;11.330;2023-04-01T05:35:00;4.90;71.80
29547;DHT22;40782;47.264;11.330;2023-04-01T05:37:29;5.00;93.50
29547;DHT22;40782;47.264;11.330;2023-04-01T05:39:56;5.10;99.90
29547;DHT22;40782;47.264;11.330;2023-04-01T05:42:24;5.30;99.90
29547;DHT22;40782;47.264;11.330;2023-04-01T05:44:51;5.30;99.90
29547;DHT22;40782;47.264;11.330;2023-04-01T05:47:18;5.30;94.40
29547;DHT22;40782;47.264;11.330;2023-04-01T05:49:45;5.30;45.90
29547;DHT22;40782;47.264;11.330;2023-04-01T05:52:12;5.30;79.00
29547;DHT22;40782;47.264;11.330;2023-04-01T05:54:41;5.30;42.10
29547;DHT22;40782;47.264;11.330;2023-04-01T05:57:08;5.40;50.30
29547;DHT22;40782;47.264;11.330;2023-04-01T05:59:35;5.40;43.50
29547;DHT22;40782;47.264;11.330;2023-04-01T06:02:02;5.30;1.00
29547;DHT22;40782;47.264;11.330;2023-04-01T06:04:32;5.30;1.00
29547;DHT22;40782;47.264;11.330;2023-04-01T06:07:00;5.20;1.00
29547;DHT22;40782;47.264;11.330;2023-04-01T06:09:28;5.30;1.00
29547;DHT22;40782;47.264;11.330;2023-04-01T06:12:04;5.20;1.00
29547;DHT22;40782;47.264;11.330;2023-04-01T06:14:36;5.30;1.00
29547;DHT22;40782;47.264;11.330;2023-04-01T06:17:15;5.20;1.00
29547;DHT22;40782;47.264;11.330;2023-04-01T06:19:44;5.20;1.00
29547;DHT22;40782;47.264;11.330;2023-04-01T06:22:22;5.40;15.70
29547;DHT22;40782;47.264;11.330;2023-04-01T06:25:00;5.40;1.00
29547;DHT22;40782;47.264;11.330;2023-04-01T06:27:39;5.40;1.00
29547;DHT22;40782;47.264;11.330;2023-04-01T06:30:16;5.40;1.00
29547;DHT22;40782;47.264;11.330;2023-04-01T06:32:56;5.40;1.00
29547;DHT22;40782;47.264;11.330;2023-04-01T06:35:36;5.40;1.00
29547;DHT22;40782;47.264;11.330;2023-04-01T06:38:08;5.50;1.00
29547;DHT22;40782;47.264;11.330;2023-04-01T06:40:45;5.60;1.00
29547;DHT22;40782;47.264;11.330;2023-04-01T06:43:21;5.70;1.00
29547;DHT22;40782;47.264;11.330;2023-04-01T06:45:51;5.70;1.00
29547;DHT22;40782;47.264;11.330;2023-04-01T06:48:24;5.90;1.00
29547;DHT22;40782;47.264;11.330;2023-04-01T06:51:00;6.00;1.00
29547;DHT22;40782;47.264;11.330;2023-04-01T06:53:30;6.00;1.00
29547;DHT22;40782;47.264;11.330;2023-04-01T06:56:01;6.10;1.00
29547;DHT22;40782;47.264;11.330;2023-04-01T06:58:36;6.20;1.00
29547;DHT22;40782;47.264;11.330;2023-04-01T07:01:04;6.20;1.00
29547;DHT22;40782;47.264;11.330;2023-04-01T07:03:33;6.20;1.00
29547;DHT22;40782;47.264;11.330;2023-04-01T07:06:02;6.10;1.00
29547;DHT22;40782;47.264;11.330;2023-04-01T07:08:30;6.20;1.00
29547;DHT22;40782;47.264;11.330;2023-04-01T07:11:00;6.30;1.00
29547;DHT22;40782;47.264;11.330;2023-04-01T07:13:30;6.50;1.00
29547;DHT22;40782;47.264;11.330;2023-04-01T07:16:05;6.60;1.00
29547;DHT22;40782;47.264;11.330;2023-04-01T07:18:34;6.60;99.90
29547;DHT22;40782;47.264;11.330;2023-04-01T07:21:03;6.80;1.00
29547;DHT22;40782;47.264;11.330;2023-04-01T07:23:32;6.60;1.00
29547;DHT22;40782;47.264;11.330;2023-04-01T07:26:01;6.60;99.90
29547;DHT22;40782;47.264;11.330;2023-04-01T07:28:31;6.70;99.90
29547;DHT22;40782;47.264;11.330;2023-04-01T07:31:02;7.00;1.00
29547;DHT22;40782;47.264;11.330;2023-04-01T07:33:35;7.10;1.00
29547;DHT22;40782;47.264;11.330;2023-04-01T07:36:06;7.20;23.90
29547;DHT22;40782;47.264;11.330;2023-04-01T07:38:37;7.30;99.90
29547;DHT22;40782;47.264;11.330;2023-04-01T07:41:08;7.20;99.90
29547;DHT22;40782;47.264;11.330;2023-04-01T07:43:41;7.10;99.90
29547;DHT22;40782;47.264;11.330;2023-04-01T07:46:12;7.00;99.90
29547;DHT22;40782;47.264;11.330;2023-04-01T07:48:44;7.20;1.00
29547;DHT22;40782;47.264;11.330;2023-04-01T07:51:15;7.40;1.00
29547;DHT22;40782;47.264;11.330;2023-04-01T07:53:45;7.40;1.00
29547;DHT22;40782;47.264;11.330;2023-04-01T07:56:14;7.60;99.90
29547;DHT22;40782;47.264;11.330;2023-04-01T07:58:48;7.80;99.90
29547;DHT22;40782;47.264;11.330;2023-04-01T08:01:19;7.80;1.00
29547;DHT22;40782;47.264;11.330;2023-04-01T08:03:53;7.90;99.90
29547;DHT22;40782;47.264;11.330;2023-04-01T08:06:24;7.90;1.00
29547;DHT22;40782;47.264;11.330;2023-04-01T08:08:56;8.00;1.00
29547;DHT22;40782;47.264;11.330;2023-04-01T08:11:28;8.20;36.60
29547;DHT22;40782;47.264;11.330;2023-04-01T08:14:00;8.10;1.00
29547;DHT22;40782;47.264;11.330;2023-04-01T08:16:30;8.20;1.00
29547;DHT22;40782;47.264;11.330;2023-04-01T08:19:03;8.10;1.00
29547;DHT22;40782;47.264;11.330;2023-04-01T08:21:35;8.00;23.50
29547;DHT22;40782;47.264;11.330;2023-04-01T08:24:08;8.10;99.90
29547;DHT22;40782;47.264;11.330;2023-04-01T08:26:38;8.30;99.90
29547;DHT22;40782;47.264;11.330;2023-04-01T08:29:08;8.30;53.40
29547;DHT22;40782;47.264;11.330;2023-04-01T08:31:37;8.60;99.90
29547;DHT22;40782;47.264;11.330;2023-04-01T08:34:11;8.70;1.00
29547;DHT22;40782;47.264;11.330;2023-04-01T08:36:42;8.80;1.00
29547;DHT22;40782;47.264;11.330;2023-04-01T08:39:12;8.90;1.00
29547;DHT22;40782;47.264;11.330;2023-04-01T08:41:56;8.90;1.00
29547;DHT22;40782;47.264;11.330;2023-04-01T08:44:39;9.10;99.90
29547;DHT22;40782;47.264;11.330;2023-04-01T08:47:20;9.20;99.90
29547;DHT22;40782;47.264;11.330;2023-04-01T08:49:59;9.30;99.90
29547;DHT22;40782;47.264;11.330;2023-04-01T08:52:30;9.20;99.90
29547;DHT22;40782;47.264;11.330;2023-04-01T08:55:02;9.20;1.00
29547;DHT22;40782;47.264;11.330;2023-04-01T08:57:37;9.30;1.00
29547;DHT22;40782;47.264;11.330;2023-04-01T09:00:19;9.50;1.00
29547;DHT22;40782;47.264;11.330;2023-04-01T09:02:55;9.60;1.00
29547;DHT22;40782;47.264;11.330;2023-04-01T09:05:39;9.80;1.00
29547;DHT22;40782;47.264;11.330;2023-04-01T09:08:14;9.90;1.00
29547;DHT22;40782;47.264;11.330;2023-04-01T09:10:49;10.00;1.00
29547;DHT22;40782;47.264;11.330;2023-04-01T09:13:36;10.10;1.00
29547;DHT22;40782;47.264;11.330;2023-04-01T09:19:03;10.30;1.00
29547;DHT22;40782;47.264;11.330;2023-04-01T09:21:39;10.40;1.00
29547;DHT22;40782;47.264;11.330;2023-04-01T09:24:14;10.50;1.00
29547;DHT22;40782;47.264;11.330;2023-04-01T09:26:53;10.60;1.00
29547;DHT22;40782;47.264;11.330;2023-04-01T09:29:26;10.80;1.00
29547;DHT22;40782;47.264;11.330;2023-04-01T09:32:15;10.90;1.00
29547;DHT22;40782;47.264;11.330;2023-04-01T09:34:52;11.00;1.00
29547;DHT22;40782;47.264;11.330;2023-04-01T09:37:25;11.20;1.00
29547;DHT22;40782;47.264;11.330;2023-04-01T09:39:59;11.40;1.00
29547;DHT22;40782;47.264;11.330;2023-04-01T09:42:41;11.40;1.00
29547;DHT22;40782;47.264;11.330;2023-04-01T09:45:14;11.50;1.00
29547;DHT22;40782;47.264;11.330;2023-04-01T09:47:48;11.60;1.00
29547;DHT22;40782;47.264;11.330;2023-04-01T09:50:28;11.70;1.00
29547;DHT22;40782;47.264;11.330;2023-04-01T09:53:01;11.80;1.00
29547;DHT22;40782;47.264;11.330;2023-04-01T09:55:43;11.90;99.90
29547;DHT22;40782;47.264;11.330;2023-04-01T09:58:27;12.10;99.90
29547;DHT22;40782;47.264;11.330;2023-04-01T10:01:09;12.50;99.90
29547;DHT22;40782;47.264;11.330;2023-04-01T10:03:49;12.70;99.90
29547;DHT22;40782;47.264;11.330;2023-04-01T10:14:50;13.10;99.90
29547;DHT22;40782;47.264;11.330;2023-04-01T10:17:49;13.20;99.90
29547;DHT22;40782;47.264;11.330;2023-04-01T10:20:34;13.60;99.90
29547;DHT22;40782;47.264;11.330;2023-04-01T10:26:23;14.20;99.90
29547;DHT22;40782;47.264;11.330;2023-04-01T10:29:06;14.40;99.90
29547;DHT22;40782;47.264;11.330;2023-04-01T10:31:47;14.50;99.90
29547;DHT22;40782;47.264;11.330;2023-04-01T10:34:34;14.60;99.90
29547;DHT22;40782;47.264;11.330;2023-04-01T10:37:08;14.50;99.90
29547;DHT22;40782;47.264;11.330;2023-04-01T10:45:30;14.80;99.90
29547;DHT22;40782;47.264;11.330;2023-04-01T10:53:39;14.50;99.90
29547;DHT22;40782;47.264;11.330;2023-04-01T10:59:12;14.60;99.90
29547;DHT22;40782;47.264;11.330;2023-04-01T11:01:48;14.50;99.90
29547;DHT22;40782;47.264;11.330;2023-04-01T11:18:57;14.50;99.90
29547;DHT22;40782;47.264;11.330;2023-04-01T11:21:37;14.70;99.90
29547;DHT22;40782;47.264;11.330;2023-04-01T11:24:15;15.20;99.90
29547;DHT22;40782;47.264;11.330;2023-04-01T11:26:51;15.50;99.90
29547;DHT22;40782;47.264;11.330;2023-04-01T11:29:25;15.30;99.90
29547;DHT22;40782;47.264;11.330;2023-04-01T11:31:58;15.20;99.90
29547;DHT22;40782;47.264;11.330;2023-04-01T11:34:37;15.00;99.90
29547;DHT22;40782;47.264;11.330;2023-04-01T11:37:13;14.90;99.90
29547;DHT22;40782;47.264;11.330;2023-04-01T11:39:42;15.00;99.90
29547;DHT22;40782;47.264;11.330;2023-04-01T11:42:18;15.10;99.90
29547;DHT22;40782;47.264;11.330;2023-04-01T11:44:50;14.90;99.90
29547;DHT22;40782;47.264;11.330;2023-04-01T11:50:25;14.80;99.90
29547;DHT22;40782;47.264;11.330;2023-04-01T11:52:55;14.90;99.90
29547;DHT22;40782;47.264;11.330;2023-04-01T11:55:28;14.90;99.90
29547;DHT22;40782;47.264;11.330;2023-04-01T11:58:10;14.90;99.90
29547;DHT22;40782;47.264;11.330;2023-04-01T12:00:43;15.00;99.90
29547;DHT22;40782;47.264;11.330;2023-04-01T12:03:21;15.10;99.90
29547;DHT22;40782;47.264;11.330;2023-04-01T12:05:57;14.70;99.90
29547;DHT22;40782;47.264;11.330;2023-04-01T12:08:29;14.60;99.90
29547;DHT22;40782;47.264;11.330;2023-04-01T12:10:59;14.60;99.90
29547;DHT22;40782;47.264;11.330;2023-04-01T12:13:30;14.80;99.90
29547;DHT22;40782;47.264;11.330;2023-04-01T12:16:03;14.60;99.90
29547;DHT22;40782;47.264;11.330;2023-04-01T12:18:33;14.60;99.90
29547;DHT22;40782;47.264;11.330;2023-04-01T12:21:06;14.60;99.90
29547;DHT22;40782;47.264;11.330;2023-04-01T12:23:42;14.60;99.90
29547;DHT22;40782;47.264;11.330;2023-04-01T12:26:19;14.50;99.90
29547;DHT22;40782;47.264;11.330;2023-04-01T12:28:54;14.50;99.90
29547;DHT22;40782;47.264;11.330;2023-04-01T12:31:27;14.30;99.90
29547;DHT22;40782;47.264;11.330;2023-04-01T12:34:13;14.20;99.90
29547;DHT22;40782;47.264;11.330;2023-04-01T12:36:52;14.10;99.90
29547;DHT22;40782;47.264;11.330;2023-04-01T12:39:28;14.20;99.90
29547;DHT22;40782;47.264;11.330;2023-04-01T12:42:00;14.20;99.90
29547;DHT22;40782;47.264;11.330;2023-04-01T12:44:42;14.10;99.90
29547;DHT22;40782;47.264;11.330;2023-04-01T12:47:25;13.90;99.90
29547;DHT22;40782;47.264;11.330;2023-04-01T12:50:08;13.80;99.90
29547;DHT22;40782;47.264;11.330;2023-04-01T12:52:41;13.70;99.90
29547;DHT22;40782;47.264;11.330;2023-04-01T12:58:00;13.70;99.90
29547;DHT22;40782;47.264;11.330;2023-04-01T13:00:33;13.70;99.90
29547;DHT22;40782;47.264;11.330;2023-04-01T13:03:05;13.60;99.90
29547;DHT22;40782;47.264;11.330;2023-04-01T13:05:44;13.40;99.90
29547;DHT22;40782;47.264;11.330;2023-04-01T13:08:20;13.30;99.90
29547;DHT22;40782;47.264;11.330;2023-04-01T13:11:02;13.30;99.90
29547;DHT22;40782;47.264;11.330;2023-04-01T13:13:34;13.30;99.90
29547;DHT22;40782;47.264;11.330;2023-04-01T13:16:05;13.50;99.90
29547;DHT22;40782;47.264;11.330;2023-04-01T13:18:37;13.40;99.90
29547;DHT22;40782;47.264;11.330;2023-04-01T13:21:08;13.50;99.90
29547;DHT22;40782;47.264;11.330;2023-04-01T13:23:45;13.50;99.90
29547;DHT22;40782;47.264;11.330;2023-04-01T13:26:18;13.40;99.90
29547;DHT22;40782;47.264;11.330;2023-04-01T13:28:47;13.40;99.90
29547;DHT22;40782;47.264;11.330;2023-04-01T13:31:22;13.40;99.90
29547;DHT22;40782;47.264;11.330;2023-04-01T13:33:53;13.30;99.90
29547;DHT22;40782;47.264;11.330;2023-04-01T13:36:25;13.30;99.90
29547;DHT22;40782;47.264;11.330;2023-04-01T13:41:41;13.20;99.90
29547;DHT22;40782;47.264;11.330;2023-04-01T13:44:12;13.10;99.90
29547;DHT22;40782;47.264;11.330;2023-04-01T13:46:54;13.10;99.90
29547;DHT22;40782;47.264;11.330;2023-04-01T13:49:38;13.00;99.90
29547;DHT22;40782;47.264;11.330;2023-04-01T13:52:12;13.00;99.90
29547;DHT22;40782;47.264;11.330;2023-04-01T13:57:34;13.10;99.90
29547;DHT22;40782;47.264;11.330;2023-04-01T14:00:06;13.20;99.90
29547;DHT22;40782;47.264;11.330;2023-04-01T14:02:51;13.20;99.90
29547;DHT22;40782;47.264;11.330;2023-04-01T14:05:28;13.30;99.90
29547;DHT22;40782;47.264;11.330;2023-04-01T14:08:01;13.50;99.90
29547;DHT22;40782;47.264;11.330;2023-04-01T14:10:31;13.60;99.90
29547;DHT22;40782;47.264;11.330;2023-04-01T14:13:04;13.80;99.90
29547;DHT22;40782;47.264;11.330;2023-04-01T14:15:42;13.80;99.90
29547;DHT22;40782;47.264;11.330;2023-04-01T14:21:04;13.70;99.90
29547;DHT22;40782;47.264;11.330;2023-04-01T14:23:40;13.80;99.90
29547;DHT22;40782;47.264;11.330;2023-04-01T14:26:14;13.70;99.90
29547;DHT22;40782;47.264;11.330;2023-04-01T14:28:49;13.50;99.90
29547;DHT22;40782;47.264;11.330;2023-04-01T14:31:23;13.30;99.90
29547;DHT22;40782;47.264;11.330;2023-04-01T14:33:57;13.20;99.90
29547;DHT22;40782;47.264;11.330;2023-04-01T14:36:37;13.10;99.90
29547;DHT22;40782;47.264;11.330;2023-04-01T14:39:12;13.00;99.90
29547;DHT22;40782;47.264;11.330;2023-04-01T14:41:43;12.90;99.90
29547;DHT22;40782;47.264;11.330;2023-04-01T14:44:26;12.60;99.90
29547;DHT22;40782;47.264;11.330;2023-04-01T14:47:04;12.50;99.90
29547;DHT22;40782;47.264;11.330;2023-04-01T14:49:35;12.40;99.90
29547;DHT22;40782;47.264;11.330;2023-04-01T14:52:04;12.40;99.90
29547;DHT22;40782;47.264;11.330;2023-04-01T14:54:33;12.40;99.90
29547;DHT22;40782;47.264;11.330;2023-04-01T14:57:05;12.50;99.90
29547;DHT22;40782;47.264;11.330;2023-04-01T14:59:40;12.50;99.90
29547;DHT22;40782;47.264;11.330;2023-04-01T15:02:11;12.50;99.90
29547;DHT22;40782;47.264;11.330;2023-04-01T15:04:47;12.60;99.90
29547;DHT22;40782;47.264;11.330;2023-04-01T15:09:58;12.60;99.90
29547;DHT22;40782;47.264;11.330;2023-04-01T15:12:30;12.60;99.90
29547;DHT22;40782;47.264;11.330;2023-04-01T15:15:09;12.60;99.90
29547;DHT22;40782;47.264;11.330;2023-04-01T15:17:42;12.60;99.90
29547;DHT22;40782;47.264;11.330;2023-04-01T15:20:13;12.60;99.90
29547;DHT22;40782;47.264;11.330;2023-04-01T15:22:44;12.60;99.90
29547;DHT22;40782;47.264;11.330;2023-04-01T15:28:06;12.70;99.90
29547;DHT22;40782;47.264;11.330;2023-04-01T15:30:39;12.60;99.90
29547;DHT22;40782;47.264;11.330;2023-04-01T15:35:57;12.50;99.90
29547;DHT22;40782;47.264;11.330;2023-04-01T15:38:30;12.50;99.90
29547;DHT22;40782;47.264;11.330;2023-04-01T15:41:02;12.50;99.90
29547;DHT22;40782;47.264;11.330;2023-04-01T15:43:36;12.40;99.90
29547;DHT22;40782;47.264;11.330;2023-04-01T15:46:17;12.40;99.90
29547;DHT22;40782;47.264;11.330;2023-04-01T15:48:48;12.30;99.90
29547;DHT22;40782;47.264;11.330;2023-04-01T15:51:22;12.30;99.90
29547;DHT22;40782;47.264;11.330;2023-04-01T15:54:06;12.20;99.90
29547;DHT22;40782;47.264;11.330;2023-04-01T15:56:37;12.20;99.90
29547;DHT22;40782;47.264;11.330;2023-04-01T15:59:12;12.10;99.90
29547;DHT22;40782;47.264;11.330;2023-04-01T16:01:43;12.20;99.90
29547;DHT22;40782;47.264;11.330;2023-04-01T16:04:16;12.20;99.90
29547;DHT22;40782;47.264;11.330;2023-04-01T16:06:48;12.20;99.90
29547;DHT22;40782;47.264;11.330;2023-04-01T16:09:23;12.10;99.90
29547;DHT22;40782;47.264;11.330;2023-04-01T16:11:57;12.10;99.90
29547;DHT22;40782;47.264;11.330;2023-04-01T16:14:29;12.20;99.90
29547;DHT22;40782;47.264;11.330;2023-04-01T16:17:03;12.10;99.90
29547;DHT22;40782;47.264;11.330;2023-04-01T16:19:33;12.10;99.90
29547;DHT22;40782;47.264;11.330;2023-04-01T16:22:05;12.20;99.90
29547;DHT22;40782;47.264;11.330;2023-04-01T16:24:34;12.20;99.90
29547;DHT22;40782;47.264;11.330;2023-04-01T16:27:04;12.20;99.90
29547;DHT22;40782;47.264;11.330;2023-04-01T16:29:34;12.20;99.90
29547;DHT22;40782;47.264;11.330;2023-04-01T16:32:13;12.30;99.90
29547;DHT22;40782;47.264;11.330;2023-04-01T16:34:42;12.30;99.90
29547;DHT22;40782;47.264;11.330;2023-04-01T16:37:10;12.40;99.90
29547;DHT22;40782;47.264;11.330;2023-04-01T16:39:42;12.50;99.90
29547;DHT22;40782;47.264;11.330;2023-04-01T16:42:15;12.50;99.90
29547;DHT22;40782;47.264;11.330;2023-04-01T16:44:46;12.50;99.90
29547;DHT22;40782;47.264;11.330;2023-04-01T16:47:16;12.50;99.90
29547;DHT22;40782;47.264;11.330;2023-04-01T16:49:45;12.40;99.90
29547;DHT22;40782;47.264;11.330;2023-04-01T16:52:14;12.40;99.90
29547;DHT22;40782;47.264;11.330;2023-04-01T16:54:43;12.20;99.90
29547;DHT22;40782;47.264;11.330;2023-04-01T16:57:16;12.20;99.90
29547;DHT22;40782;47.264;11.330;2023-04-01T16:59:45;12.20;99.90
29547;DHT22;40782;47.264;11.330;2023-04-01T17:02:13;12.10;99.90
29547;DHT22;40782;47.264;11.330;2023-04-01T17:04:45;12.10;99.90
29547;DHT22;40782;47.264;11.330;2023-04-01T17:07:15;12.20;99.90